createdAt,value
2022-08-22T00:03:16.334Z,101086.44
2022-08-22T00:05:49.207Z,101073.72
2022-08-22T00:08:58.952Z,101078.44
2022-08-22T00:12:09.289Z,101085.06
2022-08-22T00:14:51.564Z,101076.03
2022-08-22T00:17:49.888Z,101084.06
2022-08-22T00:20:41.933Z,101085.06
2022-08-22T00:23:31.260Z,101090.44
2022-08-22T00:26:04.474Z,101081.19
2022-08-22T00:28:38.867Z,101069.47
2022-08-22T00:31:32.003Z,101073.38
2022-08-22T00:34:05.205Z,101075.47
2022-08-22T00:36:51.653Z,101071.34
2022-08-22T00:39:32.858Z,101060.28
2022-08-22T00:42:31.508Z,101047.53
2022-08-22T00:45:17.939Z,101042.38
2022-08-22T00:48:03.105Z,101042.81
2022-08-22T00:50:49.688Z,101043.00
2022-08-22T00:53:31.119Z,101042.19
2022-08-22T00:56:04.669Z,101048.59
2022-08-22T00:59:00.952Z,101045.09
2022-08-22T01:02:11.516Z,101030.47
2022-08-22T01:05:16.793Z,101033.78
2022-08-22T01:08:22.626Z,101034.84
2022-08-22T01:11:20.128Z,101041.00
2022-08-22T01:14:13.195Z,101036.28
2022-08-22T01:17:02.061Z,101043.91
2022-08-22T01:20:01.102Z,101045.94
2022-08-22T01:23:01.137Z,101044.09
2022-08-22T01:25:43.571Z,101045.94
2022-08-22T01:28:33.751Z,101051.09
2022-08-22T01:31:09.858Z,101047.81
2022-08-22T01:34:14.263Z,101048.63
2022-08-22T01:37:12.448Z,101055.00
2022-08-22T01:39:48.799Z,101068.78
2022-08-22T01:42:35.540Z,101078.03
2022-08-22T01:45:14.788Z,101085.63
2022-08-22T01:48:00.452Z,101085.84
2022-08-22T01:50:41.396Z,101080.91
2022-08-22T01:53:15.513Z,101081.13
2022-08-22T01:55:48.387Z,101077.00
2022-08-22T01:58:25.375Z,101057.28
2022-08-22T02:01:14.361Z,101048.50
2022-08-22T02:04:00.768Z,101040.03
2022-08-22T02:06:53.101Z,101045.19
2022-08-22T02:09:35.369Z,101037.59
2022-08-22T02:12:13.906Z,101036.16
2022-08-22T02:15:14.199Z,101019.53
2022-08-22T02:18:12.637Z,101014.59
2022-08-22T02:20:48.729Z,101013.78
2022-08-22T02:23:33.985Z,101012.34
2022-08-22T02:26:04.138Z,101024.06
2022-08-22T02:28:57.335Z,101027.94
2022-08-22T02:32:07.241Z,101015.66
2022-08-22T02:34:50.147Z,101012.75
2022-08-22T02:37:35.490Z,101010.06
2022-08-22T02:40:13.003Z,101016.25
2022-08-22T02:42:45.755Z,101017.28
2022-08-22T02:45:18.823Z,101012.78
2022-08-22T02:47:59.794Z,101006.38
2022-08-22T02:50:52.221Z,101004.53
2022-08-22T02:53:47.533Z,101013.34
2022-08-22T02:56:41.417Z,101013.34
2022-08-22T02:59:27.586Z,101013.13
2022-08-22T03:01:56.366Z,101015.19
2022-08-22T03:04:32.460Z,101010.88
2022-08-22T03:07:36.650Z,101015.19
2022-08-22T03:10:12.945Z,101015.59
2022-08-22T03:12:42.853Z,101015.00
2022-08-22T03:15:26.074Z,101020.53
2022-08-22T03:17:59.966Z,101018.88
2022-08-22T03:20:54.899Z,101012.94
2022-08-22T03:23:42.120Z,101009.66
2022-08-22T03:26:24.282Z,101006.16
2022-08-22T03:28:59.721Z,101006.16
2022-08-22T03:31:29.568Z,101010.88
2022-08-22T03:34:21.571Z,101002.88
2022-08-22T03:37:19.599Z,100993.63
2022-08-22T03:40:08.409Z,100989.34
2022-08-22T03:43:23.444Z,100998.34
2022-08-22T03:46:17.819Z,100999.56
2022-08-22T03:49:00.634Z,101008.19
2022-08-22T03:51:41.070Z,101003.47
2022-08-22T03:54:26.695Z,101009.41
2022-08-22T03:57:31.116Z,101014.34
2022-08-22T04:00:12.893Z,101020.50
2022-08-22T04:02:42.765Z,101026.06
2022-08-22T04:05:39.779Z,101022.78
2022-08-22T04:08:29.432Z,101021.75
2022-08-22T04:11:42.948Z,101023.19
2022-08-22T04:14:24.357Z,101011.28
2022-08-22T04:17:01.484Z,101016.22
2022-08-22T04:19:57.071Z,101018.06
2022-08-22T04:22:33.686Z,101015.38
2022-08-22T04:25:09.241Z,101018.06
2022-08-22T04:27:56.158Z,101023.19
2022-08-22T04:30:45.710Z,101023.78
2022-08-22T04:33:24.845Z,101013.94
2022-08-22T04:35:52.429Z,101021.34
2022-08-22T04:38:31.337Z,101017.03
2022-08-22T04:41:22.287Z,101020.72
2022-08-22T04:43:55.926Z,101022.97
2022-08-22T04:46:41.272Z,101035.31
2022-08-22T04:49:16.057Z,101038.38
2022-08-22T04:51:52.383Z,101040.44
2022-08-22T04:55:00.126Z,101047.81
2022-08-22T04:57:27.281Z,101056.41
2022-08-22T05:00:00.409Z,101066.22
2022-08-22T05:02:28.365Z,101077.91
2022-08-22T05:05:05.078Z,101070.75
2022-08-22T05:07:46.371Z,101060.50
2022-08-22T05:10:33.667Z,101044.28
2022-08-22T05:13:12.417Z,101041.84
2022-08-22T05:15:47.152Z,101039.19
2022-08-22T05:18:23.203Z,101032.78
2022-08-22T05:20:54.219Z,101025.41
2022-08-22T05:23:43.601Z,101032.38
2022-08-22T05:26:13.757Z,101020.69
2022-08-22T05:29:05.114Z,101021.72
2022-08-22T05:31:47.449Z,101024.56
2022-08-22T05:34:19.898Z,101020.47
2022-08-22T05:36:56.316Z,101021.13
2022-08-22T05:39:28.095Z,101013.91
2022-08-22T05:41:58.306Z,101017.22
2022-08-22T05:44:33.024Z,101012.28
2022-08-22T05:47:40.346Z,101020.09
2022-08-22T05:50:20.196Z,101029.09
2022-08-22T05:53:06.507Z,101020.09
2022-08-22T05:55:39.332Z,101017.22
2022-08-22T05:58:35.943Z,101017.41
2022-08-22T06:01:38.094Z,101011.25
2022-08-22T06:04:10.220Z,101005.09
2022-08-22T06:07:18.937Z,101020.50
2022-08-22T06:09:48.597Z,101022.78
2022-08-22T06:12:28.050Z,101036.72
2022-08-22T06:15:12.747Z,101036.09
2022-08-22T06:17:49.911Z,101033.25
2022-08-22T06:20:24.400Z,101030.75
2022-08-22T06:22:58.889Z,101027.06
2022-08-22T06:25:30.567Z,101025.44
2022-08-22T06:28:01.892Z,101023.41
2022-08-22T06:30:30.028Z,101022.19
2022-08-22T06:33:05.808Z,101013.75
2022-08-22T06:36:09.629Z,101008.41
2022-08-22T06:39:21.470Z,101006.75
2022-08-22T06:42:03.100Z,101002.88
2022-08-22T06:44:40.231Z,100992.63
2022-08-22T06:47:11.655Z,100990.78
2022-08-22T06:49:40.852Z,100992.00
2022-08-22T06:52:13.057Z,100984.63
2022-08-22T06:54:46.800Z,100983.75
2022-08-22T06:57:37.486Z,100979.88
2022-08-22T07:00:13.658Z,100985.03
2022-08-22T07:02:46.955Z,100982.56
2022-08-22T07:05:24.016Z,100989.53
2022-08-22T07:07:52.761Z,100991.78
2022-08-22T07:10:22.815Z,100993.84
2022-08-22T07:12:53.686Z,100987.09
2022-08-22T07:15:40.073Z,100991.81
2022-08-22T07:18:18.482Z,100984.00
2022-08-22T07:20:55.084Z,100988.91
2022-08-22T07:23:31.939Z,100983.97
2022-08-22T07:26:17.683Z,100982.31
2022-08-22T07:28:51.574Z,100978.19
2022-08-22T07:31:40.959Z,100979.22
2022-08-22T07:34:16.908Z,100975.91
2022-08-22T07:37:01.893Z,100985.75
2022-08-22T07:40:14.046Z,101000.13
2022-08-22T07:42:51.597Z,100998.09
2022-08-22T07:45:21.386Z,100993.13
2022-08-22T07:48:25.120Z,100996.19
2022-08-22T07:51:01.226Z,100988.38
2022-08-22T07:53:34.524Z,100992.03
2022-08-22T07:56:05.880Z,100997.75
2022-08-22T07:58:41.244Z,100997.78
2022-08-22T08:01:11.742Z,101002.47
2022-08-22T08:03:39.447Z,101009.03
2022-08-22T08:06:11.347Z,101006.97
2022-08-22T08:08:44.544Z,101003.88
2022-08-22T08:11:15.213Z,101008.19
2022-08-22T08:13:46.416Z,101008.56
2022-08-22T08:16:19.893Z,101010.00
2022-08-22T08:18:50.287Z,101002.94
2022-08-22T08:21:28.744Z,101008.88
2022-08-22T08:23:57.322Z,101010.47
2022-08-22T08:27:00.275Z,101016.81
2022-08-22T08:29:27.563Z,101011.41
2022-08-22T08:31:55.387Z,101016.56
2022-08-22T08:34:26.020Z,101014.72
2022-08-22T08:37:17.440Z,101008.72
2022-08-22T08:40:01.558Z,101010.31
2022-08-22T08:43:05.911Z,101003.72
2022-08-22T08:46:08.553Z,100996.31
2022-08-22T08:48:55.663Z,100983.16
2022-08-22T08:51:56.404Z,100980.03
2022-08-22T08:54:26.502Z,100970.75
2022-08-22T08:57:15.521Z,100963.75
2022-08-22T08:59:50.831Z,100964.94
2022-08-22T09:02:50.810Z,100963.91
2022-08-22T09:05:29.787Z,100959.94
2022-08-22T09:08:23.144Z,100968.97
2022-08-22T09:11:09.816Z,100962.38
2022-08-22T09:13:55.895Z,100960.88
2022-08-22T09:16:51.243Z,100964.97
2022-08-22T09:19:46.298Z,100964.91
2022-08-22T09:25:39.904Z,100957.19
2022-08-22T09:28:32.581Z,100960.38
2022-08-22T09:31:32.950Z,100962.13
2022-08-22T09:34:38.159Z,100963.00
2022-08-22T09:37:29.983Z,100961.91
2022-08-22T09:40:06.554Z,100963.31
2022-08-22T09:40:16.276Z,100961.56
2022-08-22T09:43:10.887Z,100969.06
2022-08-22T09:45:40.753Z,100967.78
2022-08-22T09:48:23.786Z,100972.13
2022-08-22T09:51:32.325Z,100976.22
2022-08-22T09:57:01.182Z,100964.56
2022-08-22T09:59:44.946Z,100967.66
2022-08-22T10:02:23.624Z,100970.69
2022-08-22T10:04:59.538Z,100977.69
2022-08-22T10:07:48.086Z,100967.78
2022-08-22T10:10:47.738Z,100975.22
2022-08-22T10:13:57.644Z,100978.13
2022-08-22T10:16:33.956Z,100987.44
2022-08-22T10:19:38.154Z,100977.97
2022-08-22T10:22:19.882Z,100981.13
2022-08-22T10:25:10.321Z,100971.91
2022-08-22T10:27:40.294Z,100973.97
2022-08-22T10:30:13.379Z,100976.44
2022-08-22T10:33:08.494Z,100968.53
2022-08-22T10:36:01.138Z,100965.41
2022-08-22T10:38:43.925Z,100975.91
2022-08-22T10:41:36.533Z,100979.84
2022-08-22T10:44:34.479Z,100967.34
2022-08-22T10:47:15.391Z,100979.53
2022-08-22T10:49:57.649Z,100966.59
2022-08-22T10:52:34.222Z,100963.78
2022-08-22T10:55:25.743Z,100964.81
2022-08-22T10:58:00.276Z,100965.84
2022-08-22T11:00:50.076Z,100960.28
2022-08-22T11:03:23.450Z,100969.13
2022-08-22T11:05:54.822Z,100962.34
2022-08-22T11:08:37.190Z,100968.31
2022-08-22T11:11:06.934Z,100962.50
2022-08-22T11:13:58.215Z,100964.97
2022-08-22T11:16:55.405Z,100963.09
2022-08-22T11:19:22.994Z,100973.16
2022-08-22T11:22:07.456Z,100967.94
2022-08-22T11:25:11.380Z,100960.63
2022-08-22T11:28:05.932Z,100955.41
2022-08-22T11:30:48.335Z,100953.31
2022-08-22T11:33:47.108Z,100942.59
2022-08-22T11:36:51.363Z,100950.41
2022-08-22T11:39:21.778Z,100955.78
2022-08-22T11:41:54.655Z,100954.94
2022-08-22T11:44:29.912Z,100950.63
2022-08-22T11:46:59.417Z,100942.59
2022-08-22T11:49:41.689Z,100943.03
2022-08-22T11:52:21.662Z,100947.00
2022-08-22T11:55:20.064Z,100940.59
2022-08-22T11:57:56.565Z,100937.22
2022-08-22T12:00:45.938Z,100914.72
2022-08-22T12:03:31.310Z,100899.47
2022-08-22T12:06:08.391Z,100907.28
2022-08-22T12:08:40.939Z,100916.97
2022-08-22T12:11:16.393Z,100910.53
2022-08-22T12:14:05.948Z,100911.16
2022-08-22T12:17:05.979Z,100907.41
2022-08-22T12:20:05.626Z,100910.09
2022-08-22T12:22:50.195Z,100902.41
2022-08-22T12:25:38.648Z,100890.66
2022-08-22T12:28:36.400Z,100897.41
2022-08-22T12:31:47.236Z,100885.75
2022-08-22T12:34:29.543Z,100873.50
2022-08-22T12:37:17.004Z,100885.88
2022-08-22T12:39:55.301Z,100884.25
2022-08-22T12:42:43.290Z,100874.59
2022-08-22T12:45:23.412Z,100882.63
2022-08-22T12:48:14.418Z,100875.97
2022-08-22T12:50:52.082Z,100888.69
2022-08-22T12:53:27.998Z,100889.31
2022-08-22T12:56:21.542Z,100880.78
2022-08-22T12:59:04.358Z,100884.50
2022-08-22T13:01:40.191Z,100905.75
2022-08-22T13:04:33.248Z,100901.19
2022-08-22T13:07:01.073Z,100893.50
2022-08-22T13:09:37.873Z,100898.66
2022-08-22T13:12:32.088Z,100895.75
2022-08-22T13:15:10.926Z,100896.34
2022-08-22T13:17:38.132Z,100881.50
2022-08-22T13:20:20.676Z,100870.78
2022-08-22T13:22:47.892Z,100873.22
2022-08-22T13:25:25.832Z,100874.66
2022-08-22T13:28:04.111Z,100878.75
2022-08-22T13:30:49.457Z,100874.78
2022-08-22T13:33:26.168Z,100883.16
2022-08-22T13:35:56.824Z,100881.91
2022-08-22T13:38:28.108Z,100880.38
2022-08-22T13:40:58.036Z,100876.19
2022-08-22T13:43:30.432Z,100885.06
2022-08-22T13:46:01.971Z,100894.75
2022-08-22T13:48:50.839Z,100900.72
2022-08-22T13:51:40.347Z,100896.84
2022-08-22T13:54:11.230Z,100894.41
2022-08-22T13:56:47.430Z,100890.53
2022-08-22T13:59:51.701Z,100880.25
2022-08-22T14:02:31.024Z,100884.81
2022-08-22T14:05:06.565Z,100884.13
2022-08-22T14:07:40.803Z,100886.66
2022-08-22T14:10:14.770Z,100878.00
2022-08-22T14:12:57.703Z,100877.19
2022-08-22T14:15:45.497Z,100872.03
2022-08-22T14:18:31.819Z,100874.50
2022-08-22T14:21:27.556Z,100871.59
2022-08-22T14:23:59.837Z,100871.81
2022-08-22T14:26:32.922Z,100868.31
2022-08-22T14:29:08.224Z,100859.22
2022-08-22T14:31:35.487Z,100855.28
2022-08-22T14:34:10.578Z,100851.75
2022-08-22T14:36:55.202Z,100849.91
2022-08-22T14:39:31.859Z,100852.97
2022-08-22T14:42:10.262Z,100849.22
2022-08-22T14:45:06.799Z,100847.34
2022-08-22T14:47:55.320Z,100844.09
2022-08-22T14:50:53.096Z,100841.97
2022-08-22T14:53:19.983Z,100829.63
2022-08-22T14:56:04.254Z,100829.75
2022-08-22T14:58:45.889Z,100832.19
2022-08-22T15:01:16.570Z,100831.97
2022-08-22T15:03:51.315Z,100834.97
2022-08-22T15:06:48.070Z,100824.03
2022-08-22T15:09:40.567Z,100828.91
2022-08-22T15:12:22.251Z,100834.88
2022-08-22T15:14:53.255Z,100832.53
2022-08-22T15:17:51.143Z,100836.63
2022-08-22T15:20:28.670Z,100833.13
2022-08-22T15:23:09.869Z,100830.44
2022-08-22T15:25:41.339Z,100825.66
2022-08-22T15:28:17.203Z,100823.53
2022-08-22T15:31:03.500Z,100824.97
2022-08-22T15:33:39.316Z,100809.66
2022-08-22T15:36:21.384Z,100804.84
2022-08-22T15:38:54.086Z,100805.09
2022-08-22T15:41:35.947Z,100800.78
2022-08-22T15:44:06.526Z,100806.72
2022-08-22T15:46:43.859Z,100798.66
2022-08-22T15:49:19.797Z,100799.03
2022-08-22T15:52:01.998Z,100806.84
2022-08-22T15:54:51.342Z,100811.16
2022-08-22T15:57:21.293Z,100808.25
2022-08-22T15:59:54.250Z,100808.81
2022-08-22T16:02:35.661Z,100806.50
2022-08-22T16:05:11.621Z,100812.41
2022-08-22T16:07:40.714Z,100810.22
2022-08-22T16:10:28.344Z,100812.91
2022-08-22T16:13:32.285Z,100801.34
2022-08-22T16:16:10.867Z,100795.97
2022-08-22T16:18:37.691Z,100789.78
2022-08-22T16:21:18.058Z,100798.88
2022-08-22T16:23:51.728Z,100803.44
2022-08-22T16:26:30.279Z,100795.38
2022-08-22T16:29:17.821Z,100791.09
2022-08-22T16:31:45.046Z,100789.44
2022-08-22T16:34:18.103Z,100789.44
2022-08-22T16:37:18.266Z,100788.63
2022-08-22T16:39:49.959Z,100789.44
2022-08-22T16:42:19.632Z,100782.44
2022-08-22T16:45:11.023Z,100787.00
2022-08-22T16:47:54.540Z,100780.81
2022-08-22T16:51:00.490Z,100783.50
2022-08-22T16:53:30.439Z,100779.97
2022-08-22T16:56:10.446Z,100789.34
2022-08-22T16:58:56.995Z,100797.63
2022-08-22T17:01:43.050Z,100797.03
2022-08-22T17:05:04.385Z,100797.28
2022-08-22T17:07:50.718Z,100797.41
2022-08-22T17:10:29.410Z,100796.81
2022-08-22T17:13:08.558Z,100793.56
2022-08-22T17:15:40.508Z,100801.28
2022-08-22T17:18:34.846Z,100799.03
2022-08-22T17:21:15.230Z,100788.41
2022-08-22T17:24:00.896Z,100786.34
2022-08-22T17:26:33.370Z,100791.34
2022-08-22T17:29:15.210Z,100789.72
2022-08-22T17:31:54.949Z,100783.97
2022-08-22T17:34:51.388Z,100785.06
2022-08-22T17:37:52.123Z,100788.41
2022-08-22T17:40:46.776Z,100782.81
2022-08-22T17:43:33.595Z,100787.97
2022-08-22T17:46:42.630Z,100790.66
2022-08-22T17:49:14.423Z,100793.34
2022-08-22T17:51:48.984Z,100802.44
2022-08-22T17:54:32.305Z,100801.63
2022-08-22T17:57:09.945Z,100798.09
2022-08-22T17:59:49.111Z,100797.06
2022-08-22T18:02:34.326Z,100794.59
2022-08-22T18:05:32.488Z,100789.50
2022-08-22T18:11:16.100Z,100781.56
2022-08-22T18:13:46.804Z,100795.41
2022-08-22T18:16:44.682Z,100786.19
2022-08-22T18:19:14.078Z,100790.59
2022-08-22T18:21:50.755Z,100795.63
2022-08-22T18:24:33.075Z,100796.66
2022-08-22T18:27:09.542Z,100789.44
2022-08-22T18:30:05.169Z,100791.56
2022-08-22T18:32:59.696Z,100791.19
2022-08-22T18:35:40.432Z,100785.81
2022-08-22T18:38:19.672Z,100786.41
2022-08-22T18:41:05.676Z,100794.25
2022-08-22T18:43:44.672Z,100791.56
2022-08-22T18:46:34.948Z,100800.06
2022-08-22T18:49:15.532Z,100796.53
2022-08-22T18:51:44.181Z,100801.91
2022-08-22T18:54:42.966Z,100808.34
2022-08-22T18:57:31.120Z,100809.97
2022-08-22T19:00:29.752Z,100809.13
2022-08-22T19:03:15.186Z,100805.66
2022-08-22T19:06:07.396Z,100808.78
2022-08-22T19:09:05.561Z,100814.97
2022-08-22T19:11:51.273Z,100802.59
2022-08-22T19:14:36.668Z,100813.34
2022-08-22T19:17:29.865Z,100809.00
2022-08-22T19:20:15.134Z,100805.75
2022-08-22T19:22:43.776Z,100814.03
2022-08-22T19:25:27.458Z,100812.16
2022-08-22T19:27:57.573Z,100814.84
2022-08-22T19:30:51.814Z,100815.06
2022-08-22T19:33:38.743Z,100817.41
2022-08-22T19:36:07.765Z,100826.75
2022-08-22T19:38:58.904Z,100828.00
2022-08-22T19:41:38.385Z,100824.72
2022-08-22T19:44:11.383Z,100821.47
2022-08-22T19:46:42.676Z,100821.69
2022-08-22T19:49:32.916Z,100826.50
2022-08-22T19:52:37.786Z,100826.50
2022-08-22T19:55:10.897Z,100827.53
2022-08-22T19:58:03.484Z,100828.56
2022-08-22T20:00:53.927Z,100825.06
2022-08-22T20:03:39.638Z,100817.03
2022-08-22T20:06:43.093Z,100824.94
2022-08-22T20:09:43.141Z,100817.38
2022-08-22T20:12:36.532Z,100827.97
2022-08-22T20:15:19.721Z,100833.75
2022-08-22T20:18:11.563Z,100823.72
2022-08-22T20:20:56.754Z,100820.22
2022-08-22T20:23:29.994Z,100823.38
2022-08-22T20:25:57.970Z,100828.13
2022-08-22T20:28:28.575Z,100823.81
2022-08-22T20:31:00.031Z,100827.56
2022-08-22T20:33:41.819Z,100830.25
2022-08-22T20:36:18.491Z,100825.06
2022-08-22T20:39:00.880Z,100824.94
2022-08-22T20:41:33.894Z,100823.06
2022-08-22T20:44:07.058Z,100813.84
2022-08-22T20:46:55.049Z,100819.44
2022-08-22T20:49:30.611Z,100821.50
2022-08-22T20:52:10.521Z,100816.41
2022-08-22T20:54:40.395Z,100813.13
2022-08-22T20:57:18.872Z,100808.78
2022-08-22T20:59:59.706Z,100803.22
2022-08-22T21:02:57.307Z,100806.47
2022-08-22T21:05:34.069Z,100806.47
2022-08-22T21:08:05.781Z,100803.00
2022-08-22T21:10:54.098Z,100808.56
2022-08-22T21:13:36.004Z,100807.53
2022-08-22T21:16:18.505Z,100796.81
2022-08-22T21:18:50.951Z,100798.69
2022-08-22T21:21:18.221Z,100804.84
2022-08-22T21:24:01.333Z,100803.00
2022-08-22T21:26:38.177Z,100804.03
2022-08-22T21:29:07.629Z,100810.44
2022-08-22T21:31:42.526Z,100806.72
2022-08-22T21:34:32.123Z,100804.03
2022-08-22T21:37:06.979Z,100809.63
2022-08-22T21:39:45.001Z,100811.47
2022-08-22T21:42:24.365Z,100812.75
2022-08-22T21:45:00.746Z,100817.72
2022-08-22T21:47:30.444Z,100811.19
2022-08-22T21:50:09.156Z,100814.78
2022-08-22T21:52:38.824Z,100816.28
2022-08-22T21:55:32.807Z,100821.84
2022-08-22T21:58:18.533Z,100830.13
2022-08-22T22:01:25.067Z,100820.81
2022-08-22T22:03:54.610Z,100828.41
2022-08-22T22:06:21.697Z,100817.44
2022-08-22T22:08:49.263Z,100813.72
2022-08-22T22:11:17.478Z,100820.72
2022-08-22T22:13:45.293Z,100815.38
2022-08-22T22:16:12.903Z,100814.34
2022-08-22T22:18:40.933Z,100816.78
2022-08-22T22:21:09.155Z,100817.84
2022-08-22T22:23:36.401Z,100808.16
2022-08-22T22:26:06.190Z,100808.16
2022-08-22T22:28:38.360Z,100804.44
2022-08-22T22:31:06.443Z,100804.66
2022-08-22T22:33:40.537Z,100794.97
2022-08-22T22:36:11.590Z,100793.94
2022-08-22T22:38:40.441Z,100796.84
2022-08-22T22:41:07.792Z,100794.63
2022-08-22T22:43:35.210Z,100807.41
2022-08-22T22:46:02.689Z,100813.81
2022-08-22T22:48:29.764Z,100819.41
2022-08-22T22:50:56.903Z,100817.97
2022-08-22T22:53:38.450Z,100819.47
2022-08-22T22:56:09.642Z,100827.38
2022-08-22T22:58:37.579Z,100822.47
2022-08-22T23:01:14.249Z,100828.88
2022-08-22T23:03:42.023Z,100829.91
2022-08-22T23:06:18.850Z,100831.19
2022-08-22T23:08:46.854Z,100829.38
2022-08-22T23:11:17.443Z,100834.13
2022-08-22T23:13:44.542Z,100824.69
2022-08-22T23:16:15.572Z,100828.84
2022-08-22T23:18:43.166Z,100821.47
2022-08-22T23:21:23.335Z,100830.34
2022-08-22T23:23:51.654Z,100819.63
2022-08-22T23:26:18.788Z,100817.78
2022-08-22T23:28:45.908Z,100818.38
2022-08-22T23:31:38.065Z,100820.03
2022-08-22T23:34:07.403Z,100817.34
2022-08-22T23:36:35.578Z,100819.78
2022-08-22T23:39:04.831Z,100822.69
2022-08-22T23:41:32.226Z,100821.47
2022-08-22T23:43:59.244Z,100815.28
2022-08-22T23:46:27.430Z,100819.00
2022-08-22T23:48:54.834Z,100815.13
2022-08-22T23:51:24.530Z,100818.88
2022-08-22T23:53:52.794Z,100811.25
2022-08-22T23:56:26.190Z,100821.97
2022-08-22T23:58:53.477Z,100810.44
